Terminal Aerodrome Forecast
Issued by NWS Medford, OR

Home | Current Version | Previous Version | Text Only | Print | Product List | Glossary On
Versions: 1 2 3 4 5 6 7 8 9 10 11 12 13 14 15 16 17 18 19 20 21
000
FTUS46 KMFR 102342
TAFMFR
TAF
KMFR 102342Z 1100/1124 31007KT P6SM FEW040 BKN070
     FM110600 VRB03KT 5SM BR BKN020 OVC050
     FM111000 VRB03KT 1SM BR VCSH BKN003 OVC006
     FM111800 32003KT 5SM BR VCSH SCT010 BKN020 OVC035=

USA.gov is the U.S. government's official web portal to all federal, state and local government web resources and services.